createdAt,value
2023-03-29T00:00:24.300Z,7.25
2023-03-29T00:02:51.953Z,4.82
2023-03-29T00:05:23.091Z,8.52
2023-03-29T00:07:54.385Z,4.90
2023-03-29T00:10:24.222Z,8.98
2023-03-29T00:12:52.713Z,5.10
2023-03-29T00:15:20.077Z,7.53
2023-03-29T00:17:47.062Z,6.30
2023-03-29T00:20:14.380Z,5.13
2023-03-29T00:22:42.519Z,8.90
2023-03-29T00:25:11.292Z,4.78
2023-03-29T00:27:38.554Z,4.88
2023-03-29T00:30:07.601Z,5.93
2023-03-29T00:32:34.954Z,6.18
2023-03-29T00:35:02.080Z,5.32
2023-03-29T00:37:30.095Z,10.13
2023-03-29T00:39:58.196Z,7.15
2023-03-29T00:42:26.262Z,6.07
2023-03-29T00:45:30.495Z,5.50
2023-03-29T00:48:03.119Z,6.05
2023-03-29T00:50:38.110Z,9.30
2023-03-29T00:53:21.878Z,5.78
2023-03-29T00:56:04.451Z,8.63
2023-03-29T00:58:37.059Z,5.82
2023-03-29T01:01:19.515Z,5.20
2023-03-29T01:03:54.448Z,11.70
2023-03-29T01:06:25.030Z,11.55
2023-03-29T01:09:01.139Z,6.72
2023-03-29T01:11:34.972Z,5.25
2023-03-29T01:14:08.237Z,5.40
2023-03-29T01:16:38.495Z,5.03
2023-03-29T01:19:10.298Z,9.52
2023-03-29T01:21:46.314Z,13.98
2023-03-29T01:24:26.110Z,14.23
2023-03-29T01:27:03.155Z,11.18
2023-03-29T01:29:45.651Z,4.72
2023-03-29T01:32:18.570Z,4.65
2023-03-29T01:35:21.134Z,8.57
2023-03-29T01:38:11.496Z,31.38
2023-03-29T01:40:38.398Z,11.65
2023-03-29T01:43:31.672Z,7.57
2023-03-29T01:46:02.114Z,9.45
2023-03-29T01:48:32.837Z,34.03
2023-03-29T01:51:29.506Z,42.58
2023-03-29T01:54:19.155Z,34.33
2023-03-29T01:56:49.670Z,17.58
2023-03-29T01:59:20.977Z,8.77
2023-03-29T02:01:52.402Z,7.30
2023-03-29T02:04:26.735Z,13.40
2023-03-29T02:06:55.909Z,7.95
2023-03-29T02:09:23.580Z,15.85
2023-03-29T02:11:52.142Z,9.43
2023-03-29T02:14:19.457Z,8.73
2023-03-29T02:16:46.512Z,7.75
2023-03-29T02:19:15.393Z,9.43
2023-03-29T02:21:48.451Z,8.73
2023-03-29T02:24:18.250Z,6.53
2023-03-29T02:26:45.464Z,11.48
2023-03-29T02:29:12.922Z,26.10
2023-03-29T02:31:58.090Z,13.73
2023-03-29T02:34:30.261Z,8.90
2023-03-29T02:37:07.013Z,14.43
2023-03-29T02:39:36.286Z,7.22
2023-03-29T02:42:05.004Z,19.20
2023-03-29T02:44:36.676Z,8.43
2023-03-29T02:47:10.695Z,8.32
2023-03-29T02:49:37.736Z,7.13
2023-03-29T02:52:13.336Z,12.27
2023-03-29T02:54:43.375Z,10.48
2023-03-29T02:57:10.964Z,8.07
2023-03-29T02:59:38.782Z,17.08
2023-03-29T03:02:06.076Z,23.40
2023-03-29T03:04:35.727Z,13.02
2023-03-29T03:07:05.270Z,9.30
2023-03-29T03:09:32.276Z,19.17
2023-03-29T03:11:59.250Z,10.98
2023-03-29T03:14:28.337Z,16.58
2023-03-29T03:16:55.340Z,11.27
2023-03-29T03:19:22.392Z,15.63
2023-03-29T03:21:49.475Z,7.95
2023-03-29T03:24:17.815Z,11.65
2023-03-29T03:26:46.453Z,9.55
2023-03-29T03:29:15.656Z,9.80
2023-03-29T03:31:43.151Z,14.13
2023-03-29T03:34:10.428Z,10.02
2023-03-29T03:36:37.810Z,10.55
2023-03-29T03:39:07.293Z,11.02
2023-03-29T03:41:34.971Z,9.38
2023-03-29T03:44:01.920Z,11.25
2023-03-29T03:46:29.748Z,10.10
2023-03-29T03:48:57.834Z,7.60
2023-03-29T03:51:24.974Z,7.78
2023-03-29T03:53:52.301Z,12.10
2023-03-29T03:56:20.562Z,9.88
2023-03-29T03:58:47.778Z,11.60
2023-03-29T04:01:14.850Z,7.68
2023-03-29T04:03:41.837Z,13.70
2023-03-29T04:06:09.903Z,7.97
2023-03-29T04:08:36.831Z,7.13
2023-03-29T04:11:04.740Z,10.52
2023-03-29T04:13:31.951Z,9.05
2023-03-29T04:16:01.424Z,6.32
2023-03-29T04:18:28.851Z,12.77
2023-03-29T04:20:55.914Z,38.45
2023-03-29T04:23:22.845Z,12.43
2023-03-29T04:25:49.844Z,14.43
2023-03-29T04:28:16.758Z,8.27
2023-03-29T04:30:45.390Z,8.55
2023-03-29T04:33:12.332Z,9.23
2023-03-29T04:35:39.373Z,8.93
2023-03-29T04:38:10.222Z,9.68
2023-03-29T04:40:37.412Z,9.25
2023-03-29T04:43:04.769Z,9.32
2023-03-29T04:45:31.764Z,4.95
2023-03-29T04:48:01.864Z,8.35
2023-03-29T04:50:28.986Z,10.32
2023-03-29T04:52:55.918Z,6.15
2023-03-29T04:55:23.003Z,8.32
2023-03-29T04:57:49.977Z,7.55
2023-03-29T05:00:17.391Z,7.40
2023-03-29T05:02:45.132Z,8.30
2023-03-29T05:05:12.747Z,8.15
2023-03-29T05:07:40.326Z,6.90
2023-03-29T05:10:08.547Z,6.88
2023-03-29T05:12:35.747Z,9.60
2023-03-29T05:15:03.271Z,8.70
2023-03-29T05:17:31.839Z,7.35
2023-03-29T05:19:58.855Z,8.30
2023-03-29T05:22:25.895Z,10.80
2023-03-29T05:24:53.025Z,10.05
2023-03-29T05:27:22.960Z,10.48
2023-03-29T05:29:49.953Z,8.73
2023-03-29T05:32:16.932Z,8.05
2023-03-29T05:34:43.866Z,10.02
2023-03-29T05:37:10.898Z,6.53
2023-03-29T05:39:38.155Z,9.20
2023-03-29T05:42:06.010Z,6.95
2023-03-29T05:44:33.377Z,6.28
2023-03-29T05:47:00.576Z,7.25
2023-03-29T05:49:27.555Z,5.75
2023-03-29T05:51:57.216Z,11.23
2023-03-29T05:54:25.422Z,6.03
2023-03-29T05:56:52.499Z,9.85
2023-03-29T05:59:19.878Z,9.27
2023-03-29T06:01:48.217Z,8.95
2023-03-29T06:04:15.628Z,7.53
2023-03-29T06:06:42.863Z,7.28
2023-03-29T06:09:10.668Z,7.88
2023-03-29T06:11:37.772Z,6.82
2023-03-29T06:14:04.890Z,7.72
2023-03-29T06:16:32.628Z,9.30
2023-03-29T06:18:59.679Z,9.65
2023-03-29T06:21:28.291Z,11.98
2023-03-29T06:23:55.321Z,7.93
2023-03-29T06:26:22.462Z,8.30
2023-03-29T06:28:52.106Z,12.75
2023-03-29T06:31:20.016Z,11.05
2023-03-29T06:33:47.403Z,14.88
2023-03-29T06:36:16.349Z,10.68
2023-03-29T06:38:45.997Z,10.82
2023-03-29T06:41:13.049Z,10.35
2023-03-29T06:43:40.169Z,9.30
2023-03-29T06:46:12.382Z,8.98
2023-03-29T06:48:40.314Z,10.95
2023-03-29T06:51:07.859Z,10.02
2023-03-29T06:53:35.047Z,15.55
2023-03-29T06:56:05.535Z,11.15
2023-03-29T06:58:32.594Z,6.60
2023-03-29T07:01:04.199Z,8.20
2023-03-29T07:03:31.644Z,10.13
2023-03-29T07:06:04.506Z,8.00
2023-03-29T07:08:31.871Z,7.75
2023-03-29T07:10:59.555Z,10.07
2023-03-29T07:13:27.728Z,11.40
2023-03-29T07:15:54.869Z,7.25
2023-03-29T07:18:22.697Z,7.70
2023-03-29T07:20:49.796Z,8.98
2023-03-29T07:23:18.095Z,9.43
2023-03-29T07:25:45.113Z,7.50
2023-03-29T07:28:12.122Z,7.32
2023-03-29T07:30:39.173Z,5.55
2023-03-29T07:33:06.232Z,6.30
2023-03-29T07:35:33.368Z,8.30
2023-03-29T07:38:00.457Z,5.25
2023-03-29T07:40:27.616Z,4.25
2023-03-29T07:42:56.809Z,7.18
2023-03-29T07:45:26.698Z,4.70
2023-03-29T07:47:57.387Z,9.05
2023-03-29T07:50:25.170Z,5.68
2023-03-29T07:52:53.538Z,5.50
2023-03-29T07:55:20.859Z,3.47
2023-03-29T07:57:49.868Z,4.03
2023-03-29T08:00:19.664Z,3.53
2023-03-29T08:02:49.923Z,3.90
2023-03-29T08:05:26.182Z,6.63
2023-03-29T08:08:01.034Z,3.80
2023-03-29T08:10:28.616Z,5.82
2023-03-29T08:12:58.269Z,3.63
2023-03-29T08:15:25.336Z,3.40
2023-03-29T08:17:52.541Z,3.13
2023-03-29T08:20:20.081Z,3.35
2023-03-29T08:22:47.223Z,2.78
2023-03-29T08:25:14.105Z,4.22
2023-03-29T08:27:41.125Z,3.03
2023-03-29T08:30:09.603Z,8.35
2023-03-29T08:32:38.041Z,8.32
2023-03-29T08:35:06.855Z,4.65
2023-03-29T08:37:33.928Z,2.15
2023-03-29T08:40:01.525Z,3.38
2023-03-29T08:42:34.254Z,4.43
2023-03-29T08:45:25.283Z,5.05
2023-03-29T08:48:30.616Z,5.22
2023-03-29T08:51:13.346Z,4.53
2023-03-29T08:53:45.696Z,3.25
2023-03-29T08:56:34.344Z,3.97
2023-03-29T08:59:01.791Z,7.70
2023-03-29T09:01:33.823Z,17.65
2023-03-29T09:04:39.969Z,5.43
2023-03-29T09:07:11.260Z,4.88
2023-03-29T09:09:38.469Z,5.22
2023-03-29T09:12:35.744Z,4.32
2023-03-29T09:15:49.462Z,4.05
2023-03-29T09:18:41.251Z,6.15
2023-03-29T09:21:35.682Z,4.47
2023-03-29T09:24:17.417Z,5.97
2023-03-29T09:27:14.616Z,4.57
2023-03-29T09:29:59.825Z,4.50
2023-03-29T09:32:34.351Z,3.08
2023-03-29T09:37:41.729Z,3.65
2023-03-29T09:40:18.785Z,5.88
2023-03-29T09:42:48.256Z,7.40
2023-03-29T09:45:15.304Z,3.70
2023-03-29T09:47:57.246Z,4.68
2023-03-29T09:50:36.950Z,3.50
2023-03-29T09:53:05.613Z,3.28
2023-03-29T09:55:36.346Z,4.22
2023-03-29T09:58:18.149Z,3.13
2023-03-29T10:00:46.710Z,4.43
2023-03-29T10:03:22.668Z,4.15
2023-03-29T10:05:53.396Z,4.55
2023-03-29T10:08:28.393Z,3.53
2023-03-29T10:10:58.343Z,6.78
2023-03-29T10:13:43.755Z,3.70
2023-03-29T10:16:20.552Z,4.18
2023-03-29T10:18:47.994Z,3.55
2023-03-29T10:21:17.092Z,3.63
2023-03-29T10:23:44.412Z,3.97
2023-03-29T10:26:26.923Z,3.15
2023-03-29T10:28:57.387Z,4.60
2023-03-29T10:31:25.909Z,6.70
2023-03-29T10:33:57.430Z,3.78
2023-03-29T10:36:27.503Z,3.50
2023-03-29T10:38:58.842Z,5.13
2023-03-29T10:41:27.618Z,5.30
2023-03-29T10:43:55.556Z,5.30
2023-03-29T10:46:23.979Z,3.58
2023-03-29T10:48:57.515Z,5.13
2023-03-29T10:51:27.882Z,2.67
2023-03-29T10:53:56.229Z,11.35
2023-03-29T10:56:40.383Z,3.25
2023-03-29T10:59:27.465Z,4.20
2023-03-29T11:02:15.838Z,3.38
2023-03-29T11:05:02.005Z,3.60
2023-03-29T11:07:36.689Z,3.53
2023-03-29T11:10:26.081Z,4.40
2023-03-29T11:13:15.104Z,5.13
2023-03-29T11:16:06.826Z,3.17
2023-03-29T11:18:44.371Z,3.42
2023-03-29T11:21:14.403Z,3.85
2023-03-29T11:23:55.347Z,3.40
2023-03-29T11:26:25.151Z,5.82
2023-03-29T11:29:04.662Z,5.28
2023-03-29T11:31:43.349Z,4.13
2023-03-29T11:34:31.846Z,6.55
2023-03-29T11:37:29.064Z,5.65
2023-03-29T11:40:05.784Z,4.15
2023-03-29T11:42:36.042Z,3.13
2023-03-29T11:45:05.182Z,4.18
2023-03-29T11:47:37.299Z,4.78
2023-03-29T11:50:21.864Z,3.65
2023-03-29T11:52:54.513Z,4.63
2023-03-29T11:55:28.245Z,6.18
2023-03-29T11:58:17.844Z,2.80
2023-03-29T12:01:32.429Z,3.15
2023-03-29T12:04:03.284Z,4.30
2023-03-29T12:06:37.923Z,4.85
2023-03-29T12:09:31.785Z,4.43
2023-03-29T12:12:17.918Z,7.80
2023-03-29T12:15:21.336Z,8.95
2023-03-29T12:18:18.083Z,3.97
2023-03-29T12:20:49.872Z,6.05
2023-03-29T12:23:17.932Z,6.20
2023-03-29T12:26:17.146Z,19.27
2023-03-29T12:29:05.644Z,4.03
2023-03-29T12:31:44.340Z,5.28
2023-03-29T12:34:50.203Z,6.55
2023-03-29T12:37:38.646Z,3.28
2023-03-29T12:40:14.856Z,7.22
2023-03-29T12:42:53.340Z,6.72
2023-03-29T12:45:53.066Z,5.32
2023-03-29T12:48:27.329Z,6.85
2023-03-29T12:51:18.861Z,8.93
2023-03-29T12:54:03.641Z,3.60
2023-03-29T12:59:45.076Z,7.05
2023-03-29T13:02:15.015Z,4.40
2023-03-29T13:05:01.256Z,4.03
2023-03-29T13:07:32.739Z,3.05
2023-03-29T13:10:24.814Z,4.85
2023-03-29T13:12:51.721Z,8.32
2023-03-29T13:15:19.030Z,4.63
2023-03-29T13:18:07.849Z,5.35
2023-03-29T13:20:56.583Z,8.73
2023-03-29T13:23:46.040Z,4.47
2023-03-29T13:26:24.658Z,4.95
2023-03-29T13:29:35.863Z,13.05
2023-03-29T13:32:27.671Z,5.55
2023-03-29T13:35:39.218Z,4.05
2023-03-29T13:38:22.830Z,5.55
2023-03-29T13:41:40.159Z,4.90
2023-03-29T13:44:22.342Z,6.93
2023-03-29T13:47:00.951Z,5.57
2023-03-29T13:49:31.803Z,6.30
2023-03-29T13:52:12.652Z,12.55
2023-03-29T13:54:43.135Z,3.75
2023-03-29T13:57:23.701Z,5.00
2023-03-29T13:59:54.923Z,5.78
2023-03-29T14:02:43.756Z,9.60
2023-03-29T14:05:16.007Z,5.78
2023-03-29T14:07:47.776Z,5.70
2023-03-29T14:10:19.217Z,10.52
2023-03-29T14:12:47.014Z,6.53
2023-03-29T14:15:42.406Z,8.88
2023-03-29T14:18:12.535Z,7.65
2023-03-29T14:20:46.831Z,7.53
2023-03-29T14:23:20.491Z,8.38
2023-03-29T14:25:47.710Z,7.18
2023-03-29T14:28:29.008Z,8.32
2023-03-29T14:30:56.773Z,6.65
2023-03-29T14:33:33.524Z,7.13
2023-03-29T14:36:05.226Z,4.97
2023-03-29T14:38:32.647Z,7.25
2023-03-29T14:41:00.952Z,7.75
2023-03-29T14:43:31.363Z,8.80
2023-03-29T14:46:00.648Z,6.60
2023-03-29T14:48:28.418Z,8.68
2023-03-29T14:50:55.864Z,6.57
2023-03-29T14:53:24.382Z,8.77
2023-03-29T14:55:53.320Z,7.88
2023-03-29T14:58:29.403Z,7.00
2023-03-29T15:00:57.023Z,6.85
2023-03-29T15:03:27.372Z,6.47
2023-03-29T15:06:05.469Z,5.97
2023-03-29T15:08:38.161Z,8.98
2023-03-29T15:11:27.443Z,6.60
2023-03-29T15:14:21.328Z,11.45
2023-03-29T15:16:49.815Z,4.85
2023-03-29T15:19:22.445Z,7.93
2023-03-29T15:21:51.206Z,5.70
2023-03-29T15:24:28.513Z,5.65
2023-03-29T15:27:04.416Z,6.15
2023-03-29T15:29:42.908Z,5.88
2023-03-29T15:32:19.997Z,11.02
2023-03-29T15:34:47.589Z,8.85
2023-03-29T15:37:14.603Z,10.07
2023-03-29T15:39:44.308Z,9.32
2023-03-29T15:42:11.806Z,7.72
2023-03-29T15:44:39.259Z,6.10
2023-03-29T15:47:13.309Z,11.35
2023-03-29T15:49:40.489Z,5.95
2023-03-29T15:52:07.408Z,6.55
2023-03-29T15:54:36.776Z,7.18
2023-03-29T15:57:07.421Z,8.75
2023-03-29T15:59:36.649Z,8.40
2023-03-29T16:02:04.848Z,7.57
2023-03-29T16:04:31.782Z,6.97
2023-03-29T16:06:59.003Z,9.20
2023-03-29T16:09:26.012Z,7.72
2023-03-29T16:11:52.997Z,7.63
2023-03-29T16:14:31.794Z,8.35
2023-03-29T16:17:00.177Z,6.93
2023-03-29T16:19:28.736Z,10.02
2023-03-29T16:21:56.553Z,9.52
2023-03-29T16:24:26.540Z,8.73
2023-03-29T16:26:55.909Z,5.80
2023-03-29T16:29:23.954Z,8.45
2023-03-29T16:31:51.269Z,8.32
2023-03-29T16:34:19.337Z,7.30
2023-03-29T16:36:47.875Z,8.60
2023-03-29T16:39:16.011Z,8.10
2023-03-29T16:41:45.265Z,9.93
2023-03-29T16:44:23.979Z,9.95
2023-03-29T16:46:54.220Z,13.05
2023-03-29T16:49:21.645Z,7.50
2023-03-29T16:51:48.961Z,6.95
2023-03-29T16:54:17.381Z,9.13
2023-03-29T16:56:44.583Z,7.15
2023-03-29T16:59:12.149Z,6.15
2023-03-29T17:01:40.837Z,6.05
2023-03-29T17:04:08.800Z,9.85
2023-03-29T17:06:36.175Z,8.70
2023-03-29T17:09:05.199Z,8.88
2023-03-29T17:11:32.360Z,7.72
2023-03-29T17:14:00.169Z,9.00
2023-03-29T17:16:29.084Z,8.63
2023-03-29T17:19:00.417Z,16.25
2023-03-29T17:21:28.990Z,21.98
2023-03-29T17:23:55.984Z,17.27
2023-03-29T17:26:22.945Z,10.15
2023-03-29T17:28:49.931Z,11.32
2023-03-29T17:31:19.215Z,9.52
2023-03-29T17:33:46.389Z,14.07
2023-03-29T17:36:13.462Z,8.90
2023-03-29T17:38:40.518Z,13.35
2023-03-29T17:41:08.417Z,8.55
2023-03-29T17:43:35.766Z,10.52
2023-03-29T17:46:03.145Z,10.95
2023-03-29T17:48:31.884Z,7.90
2023-03-29T17:50:59.049Z,8.05
2023-03-29T17:53:26.065Z,6.93
2023-03-29T17:55:53.026Z,6.88
2023-03-29T17:58:20.063Z,11.35
2023-03-29T18:00:47.097Z,9.45
2023-03-29T18:03:14.805Z,8.43
2023-03-29T18:05:42.320Z,7.80
2023-03-29T18:08:09.379Z,11.82
2023-03-29T18:10:36.991Z,9.15
2023-03-29T18:13:03.931Z,12.38
2023-03-29T18:15:30.929Z,8.38
2023-03-29T18:17:58.035Z,9.73
2023-03-29T18:20:25.014Z,9.38
2023-03-29T18:22:51.928Z,8.20
2023-03-29T18:25:20.122Z,12.15
2023-03-29T18:27:47.042Z,10.18
2023-03-29T18:30:16.821Z,12.02
2023-03-29T18:32:43.928Z,11.25
2023-03-29T18:35:11.663Z,12.57
2023-03-29T18:37:39.071Z,11.00
2023-03-29T18:40:08.332Z,10.90
2023-03-29T18:42:35.381Z,13.57
2023-03-29T18:45:02.812Z,13.15
2023-03-29T18:47:29.846Z,13.68
2023-03-29T18:49:57.846Z,15.45
2023-03-29T18:52:24.848Z,17.42
2023-03-29T18:54:51.977Z,15.27
2023-03-29T18:57:18.958Z,14.40
2023-03-29T18:59:45.969Z,17.02
2023-03-29T19:02:13.036Z,13.95
2023-03-29T19:04:40.031Z,16.85
2023-03-29T19:07:09.017Z,18.05
2023-03-29T19:09:36.033Z,19.13
2023-03-29T19:12:03.212Z,14.90
2023-03-29T19:14:30.256Z,14.32
2023-03-29T19:16:57.522Z,13.85
2023-03-29T19:19:26.356Z,12.75
2023-03-29T19:21:53.572Z,17.35
2023-03-29T19:24:20.927Z,21.00
2023-03-29T19:26:50.155Z,16.77
2023-03-29T19:29:17.156Z,17.10
2023-03-29T19:31:44.194Z,15.25
2023-03-29T19:34:11.466Z,16.95
2023-03-29T19:36:38.734Z,20.25
2023-03-29T19:39:06.408Z,20.48
2023-03-29T19:41:33.440Z,16.90
2023-03-29T19:44:00.526Z,23.52
2023-03-29T19:46:29.049Z,17.85
2023-03-29T19:48:56.450Z,21.33
2023-03-29T19:51:23.874Z,26.20
2023-03-29T19:53:51.001Z,22.63
2023-03-29T19:56:17.937Z,26.48
2023-03-29T19:58:44.917Z,23.83
2023-03-29T20:01:12.004Z,24.13
2023-03-29T20:03:40.438Z,22.02
2023-03-29T20:06:10.481Z,22.15
2023-03-29T20:08:38.935Z,17.90
2023-03-29T20:11:10.455Z,19.20
2023-03-29T20:13:41.109Z,18.23
2023-03-29T20:16:13.947Z,17.30
2023-03-29T20:18:40.992Z,17.08
2023-03-29T20:21:09.414Z,18.23
2023-03-29T20:23:36.662Z,16.02
2023-03-29T20:29:51.388Z,18.40
2023-03-29T20:32:18.430Z,15.55
2023-03-29T20:34:45.355Z,16.35
2023-03-29T20:37:12.944Z,15.38
2023-03-29T20:39:39.901Z,15.43
2023-03-29T20:42:06.882Z,15.07
2023-03-29T20:44:35.297Z,11.77
2023-03-29T20:47:03.462Z,17.80
2023-03-29T20:49:37.602Z,13.77
2023-03-29T20:52:08.169Z,12.75
2023-03-29T20:54:37.227Z,14.15
2023-03-29T20:57:05.355Z,14.63
2023-03-29T20:59:32.550Z,16.67
2023-03-29T21:02:00.455Z,15.88
2023-03-29T21:04:28.493Z,18.55
2023-03-29T21:06:56.402Z,20.83
2023-03-29T21:09:23.951Z,17.38
2023-03-29T21:11:52.506Z,19.17
2023-03-29T21:14:21.293Z,17.60
2023-03-29T21:16:49.425Z,21.10
2023-03-29T21:19:17.141Z,23.10
2023-03-29T21:21:45.046Z,17.75
2023-03-29T21:24:13.878Z,21.65
2023-03-29T21:26:41.622Z,21.55
2023-03-29T21:29:08.568Z,15.82
2023-03-29T21:31:35.618Z,13.90
2023-03-29T21:34:02.712Z,15.32
2023-03-29T21:36:29.677Z,14.52
2023-03-29T21:38:56.871Z,17.20
2023-03-29T21:41:23.813Z,15.02
2023-03-29T21:43:50.793Z,16.83
2023-03-29T21:46:17.805Z,14.68
2023-03-29T21:48:44.794Z,12.05
2023-03-29T21:51:11.805Z,14.57
2023-03-29T21:53:38.779Z,19.58
2023-03-29T21:56:06.729Z,16.15
2023-03-29T21:58:33.769Z,11.88
2023-03-29T22:01:03.880Z,16.83
2023-03-29T22:03:31.475Z,12.00
2023-03-29T22:06:03.921Z,13.60
2023-03-29T22:08:30.960Z,16.00
2023-03-29T22:10:57.964Z,14.25
2023-03-29T22:13:27.241Z,14.07
2023-03-29T22:16:04.534Z,12.32
2023-03-29T22:18:43.127Z,13.35
2023-03-29T22:21:14.580Z,10.65
2023-03-29T22:23:47.041Z,13.15
2023-03-29T22:26:15.921Z,15.80
2023-03-29T22:28:43.910Z,13.20
2023-03-29T22:31:13.896Z,12.93
2023-03-29T22:33:41.843Z,15.15
2023-03-29T22:36:17.907Z,14.57
2023-03-29T22:38:46.254Z,14.25
2023-03-29T22:41:14.348Z,12.98
2023-03-29T22:43:41.914Z,14.25
2023-03-29T22:46:11.200Z,18.42
2023-03-29T22:48:38.788Z,15.90
2023-03-29T22:51:06.668Z,13.60
2023-03-29T22:53:33.863Z,16.05
2023-03-29T22:56:00.959Z,15.93
2023-03-29T22:58:29.615Z,13.80
2023-03-29T23:00:57.994Z,12.90
2023-03-29T23:03:25.231Z,14.98
2023-03-29T23:05:55.137Z,17.05
2023-03-29T23:08:23.116Z,16.63
2023-03-29T23:10:50.037Z,17.38
2023-03-29T23:13:24.097Z,15.88
2023-03-29T23:15:52.643Z,13.60
2023-03-29T23:18:21.562Z,12.68
2023-03-29T23:20:50.264Z,15.02
2023-03-29T23:23:18.719Z,14.10
2023-03-29T23:25:47.723Z,15.68
2023-03-29T23:28:16.941Z,14.32
2023-03-29T23:30:44.059Z,14.02
2023-03-29T23:33:11.811Z,12.70
2023-03-29T23:35:38.795Z,13.05
2023-03-29T23:38:06.300Z,14.85
2023-03-29T23:40:33.439Z,10.38
2023-03-29T23:43:00.365Z,16.88
2023-03-29T23:45:28.211Z,14.93
2023-03-29T23:47:56.155Z,13.90
2023-03-29T23:50:23.560Z,12.50
2023-03-29T23:52:51.760Z,19.17
2023-03-29T23:55:19.574Z,13.75
2023-03-29T23:57:46.622Z,13.05
